Gillette, WY

3:46 AM MDT on July 12, 2014 (GMT -0600)
RAWS ECHETA WY US (MECEW4) Elev 4396 ft | 44.47 °N, 105.84 °W | Change Station

Current weather conditions updated 55 minutes ago

Clear
Clear
63 °F
Feels Like 63 °F
N
12
Wind Variable Wind from SSE
Gusts 15.0 mph

Today is forecast to be Cooler than yesterday.

Today
High -- | Low -- °F
--% Chance of Precip.
Yesterday
High -- | Low -- °F
Precip. -- in
5:29 AM 8:46 PM
Full, 100% visible
Pressure 30.04 in
Visibility 10.0 miles
Clouds Clear
Dew Point 60 °F
Humidity 89%
Rainfall 0.01 in
Snow Depth Not available.
UV 0 out of 12
Pollen 4.60 out of 12
Air Quality Not available.
Flu Activity Sporadic
METAR KGCC 120853Z AUTO 17006KT 10SM CLR 16/14 A3017 RMK AO2 SLP172 T01560139 58000 $

More Conditions Fewer Conditions

Pressure 30.04 in
Visibility 10.0 miles
Clouds Clear
Dew Point 60 °F
Humidity 89%
Rainfall 0.01 in
Snow Depth Not available.
UV 0 out of 12
Pollen 4.60 out of 12
Air Quality Not available.
Flu Activity Sporadic
METAR KGCC 120853Z AUTO 17006KT 10SM CLR 16/14 A3017 RMK AO2 SLP172 T01560139 58000 $

More Conditions Fewer Conditions

10-Day Weather Forecast

Almanac

Astronomy

Jul. 12, 2014 Rise Set
Actual Time 5:29 AM MDT 8:46 PM MDT
Civil Twilight 4:53 AM MDT 9:22 PM MDT
Nautical Twilight 4:06 AM MDT 10:09 PM MDT
Astronomical Twilight 3:08 AM MDT 11:06 PM MDT
Moon 8:46 PM MDT 5:55 AM MDT
Length of Visible Light 16h 29m
Length of Day
15h 17m
Tomorrow will be 1m 29s shorter.
Full, 100% of the Moon is Illuminated
Today
Full
Jul 12
Full
Jul 18
Last Quarter
Jul 26
New
Aug 3
First Quarter

Today's Extremes

State Highs State Lows

Community

WunderPhotos

Upload Photos

1,732,746 photos uploaded!

Nearby

Snow Depth

Station Depth Elevation
Cole Canyon 0 in 5910 ft
Hansen Sawmill 0 in 8360 ft
Cloud Peak Reservoir 0 in 9860 ft
Big Goose 0 in 7990 ft
Dome Lake 0 in 8880 ft

Earthquake Activity

City Distance Mag. Time & Date
No recent earthquake activity has been reported nearby.
Minimum magnitude displayed is 2.5.

Coastal Water Temperatures

Place Temperature
No Stations Reporting

Nearby Weather Stations

Station Location Temp. Dew Point Humidity Wind Precip. Elev Updated Type
RAWS ECHETA WY, Gillette, WY 63 °F 60 °F 89% SSE  at  12 mph 0.00 in / hr 4396 ft 2:51 AM MDT MADIS
(North Gillette), Gillette, WY 61.0 °F 56 °F 85% West  at  0.0 mph 0.00 in / hr 4610 ft 3:46 AM MDT Rapid Fire

Show More Stations Show Fewer Stations